This is the latest recevied weather packets stored in our database for station/object CX2SA-13. If no packets are shown the sender has not sent any weather packets the latest 1 day(s).
| Time | Temp. | Humidity | Pressure | Rain* | Wind** | Luminosity | Snow |
|---|---|---|---|---|---|---|---|
| 1836274658 | 20.56° C | 98% | 1009.4 hPa | 0.51 mm | 3.13 m/s, 112° | - | - |
| 1778059785 | 22.22° C | 97% | 1008.8 hPa | 0 mm | 0.89 m/s, 22° | - | - |
| 1778058884 | 21.67° C | 97% | 1008.8 hPa | 0 mm | 0.89 m/s, 90° | - | - |
| 1778057984 | 21.67° C | 97% | 1009.1 hPa | 0 mm | 1.34 m/s, 112° | - | - |
| 1778057085 | 21.67° C | 97% | 1009.1 hPa | 0 mm | 0.89 m/s, 112° | - | - |
| 1778056184 | 21.67° C | 97% | 1009.1 hPa | 0 mm | 2.24 m/s, 112° | - | - |
| 1778055285 | 21.67° C | 97% | 1009.1 hPa | 0 mm | 2.24 m/s, 112° | - | - |
| 1778054385 | 21.67° C | 97% | 1009.1 hPa | 0 mm | 2.24 m/s, 112° | - | - |
| 1778053484 | 21.67° C | 97% | 1009.1 hPa | 0 mm | 1.34 m/s, 112° | - | - |
| 1778052585 | 21.67° C | 97% | 1009.1 hPa | 0 mm | 1.34 m/s, 112° | - | - |
| 1778051686 | 21.67° C | 97% | 1009.4 hPa | 0 mm | 1.79 m/s, 67° | - | - |
| 1778050784 | 21.67° C | 97% | 1009.4 hPa | 0 mm | 0.89 m/s, 112° | - | - |
| 1778047185 | 22.22° C | 96% | 1009.4 hPa | 0 mm | 0.89 m/s, 112° | - | - |
| 1778045385 | 22.22° C | 97% | 1009.4 hPa | 0 mm | 1.79 m/s, 67° | - | - |
| 1778044485 | 21.67° C | 97% | 1009.4 hPa | 0 mm | 0.89 m/s, 67° | - | - |
| 1778042685 | 21.67° C | 98% | 1009.4 hPa | 0 mm | 0.89 m/s, 360° | - | - |
| 1778041786 | 21.67° C | 98% | 1009.4 hPa | 0 mm | 0.89 m/s, 337° | - | - |
| 1778040884 | 21.67° C | 98% | 1009.4 hPa | 0 mm | 0 m/s | - | - |
| 1778039985 | 21.67° C | 98% | 1009.8 hPa | 0 mm | 0.89 m/s, 22° | - | - |
| 1778038184 | 21.67° C | 98% | 1009.8 hPa | 0 mm | 0 m/s | - | - |
| 1778037285 | 21.11° C | 98% | 1009.8 hPa | 0 mm | 0 m/s | - | - |
| 1778033684 | 21.67° C | 97% | 1009.4 hPa | 17.02 mm | 0.89 m/s, 247° | - | - |
| 1778032785 | 21.67° C | 97% | 1009.4 hPa | 17.02 mm | 0 m/s | - | - |
| 1778031886 | 21.67° C | 97% | 1009.4 hPa | 17.02 mm | 0.45 m/s, 45° | - | - |
| 1778030984 | 21.67° C | 97% | 1009.4 hPa | 17.02 mm | 0 m/s | - | - |
* Rain since midnight (hover to see other rain measurements)
** Current wind speed in m/s (hover to see current wind gust speed)